Time;durP1;ratioP1;P1;durP2;ratioP2;P2;SDS_P1;SDS_P2;PMS_P1;PMS_P2;Temp;Humidity;BMP_temperature;BMP_pressure;BME280_temperature;BME280_humidity;BME280_pressure;Samples;Min_cycle;Max_cycle;Signal;HPM_P1;HPM_P2
2021/10/21 00:00:54;;;;;;;4.43;3.40;;;16.00;91.20;;;;;;5013861;28;20165;-76
2021/10/21 00:03:20;;;;;;;5.10;3.10;;;16.00;91.20;;;;;;5014311;28;20665;-75
2021/10/21 00:05:45;;;;;;;4.30;2.77;;;16.00;91.10;;;;;;5013858;28;20529;-75
2021/10/21 00:08:11;;;;;;;5.10;3.10;;;16.10;91.10;;;;;;5012566;28;20261;-75
2021/10/21 00:10:37;;;;;;;3.07;2.03;;;16.10;91.00;;;;;;5013596;28;20180;-74
2021/10/21 00:13:03;;;;;;;3.93;2.30;;;16.10;90.80;;;;;;5013519;28;20195;-75
2021/10/21 00:15:29;;;;;;;5.63;2.17;;;16.10;90.40;;;;;;5013533;28;20301;-76
2021/10/21 00:17:55;;;;;;;4.83;1.80;;;16.20;89.40;;;;;;5012199;28;20206;-75
2021/10/21 00:20:20;;;;;;;3.63;1.77;;;16.30;88.70;;;;;;5012457;28;20427;-75
2021/10/21 00:22:46;;;;;;;2.63;1.70;;;16.40;88.30;;;;;;5012333;28;20511;-75
2021/10/21 00:25:12;;;;;;;3.93;2.20;;;16.40;86.90;;;;;;5015759;28;20528;-76
2021/10/21 00:27:38;;;;;;;2.67;1.90;;;16.50;87.10;;;;;;5012878;28;20171;-75
2021/10/21 00:30:04;;;;;;;6.40;2.20;;;16.60;87.80;;;;;;5013453;28;20186;-75
2021/10/21 00:32:29;;;;;;;5.03;2.53;;;16.60;88.50;;;;;;5013183;28;20163;-75
2021/10/21 00:34:55;;;;;;;3.43;2.10;;;16.60;90.00;;;;;;5013530;28;20417;-74
2021/10/21 00:37:21;;;;;;;3.70;2.53;;;16.50;90.50;;;;;;5011991;28;20206;-75
2021/10/21 00:39:46;;;;;;;5.40;2.23;;;16.40;90.90;;;;;;5013458;28;20164;-75
2021/10/21 00:42:12;;;;;;;6.70;2.50;;;16.30;91.70;;;;;;5013509;28;20171;-76
2021/10/21 00:44:38;;;;;;;6.73;2.53;;;16.20;91.90;;;;;;5012344;28;20191;-76
2021/10/21 00:47:04;;;;;;;2.63;1.70;;;16.10;92.40;;;;;;5012293;28;20171;-76
2021/10/21 00:49:30;;;;;;;5.13;2.27;;;16.00;92.80;;;;;;5013311;28;20644;-76
2021/10/21 00:51:56;;;;;;;5.50;2.50;;;16.00;93.40;;;;;;5012835;28;20528;-75
2021/10/21 00:54:22;;;;;;;5.53;1.93;;;15.90;93.60;;;;;;5012173;28;20426;-75
2021/10/21 00:56:50;;;;;;;5.33;2.30;;;15.80;94.80;;;;;;5011478;28;20450;-75
2021/10/21 00:59:17;;;;;;;8.10;2.07;;;15.70;95.70;;;;;;5012761;28;20784;-75
2021/10/21 01:01:42;;;;;;;2.80;1.60;;;15.60;96.10;;;;;;5012830;28;20409;-75
2021/10/21 01:04:08;;;;;;;5.97;3.10;;;15.40;96.30;;;;;;5012734;28;20794;-75
2021/10/21 01:06:34;;;;;;;6.43;2.40;;;15.30;96.60;;;;;;5012982;28;20233;-76
2021/10/21 01:09:03;;;;;;;4.57;2.13;;;15.30;97.00;;;;;;5012900;28;20193;-75
2021/10/21 01:11:29;;;;;;;4.80;1.77;;;15.30;97.00;;;;;;5012063;28;20237;-75
2021/10/21 01:13:55;;;;;;;3.37;1.70;;;15.30;96.80;;;;;;5011454;28;20456;-76
2021/10/21 01:16:21;;;;;;;2.03;1.50;;;15.30;96.60;;;;;;5011432;28;20532;-75
2021/10/21 01:18:47;;;;;;;3.57;1.40;;;15.30;95.90;;;;;;5012796;28;20672;-75
2021/10/21 01:21:13;;;;;;;3.30;1.27;;;15.30;95.70;;;;;;5012234;28;20499;-75
2021/10/21 01:23:40;;;;;;;2.47;1.10;;;15.20;95.30;;;;;;5012365;28;20275;-75
2021/10/21 01:26:12;;;;;;;2.20;1.30;;;15.20;95.00;;;;;;5012497;28;20409;-75
2021/10/21 01:28:39;;;;;;;3.00;1.00;;;15.20;93.40;;;;;;5012583;28;20772;-75
2021/10/21 01:31:05;;;;;;;2.10;1.20;;;15.10;90.80;;;;;;5010996;28;20485;-75
2021/10/21 01:33:33;;;;;;;2.33;0.90;;;15.00;90.40;;;;;;5012051;28;20439;-75
2021/10/21 01:35:59;;;;;;;1.63;0.90;;;14.90;87.40;;;;;;5011320;28;20855;-75
2021/10/21 01:38:25;;;;;;;1.53;0.67;;;14.90;84.70;;;;;;5012111;28;20402;-75
2021/10/21 01:40:50;;;;;;;1.97;0.60;;;14.80;84.70;;;;;;5012117;28;20681;-75
2021/10/21 01:43:16;;;;;;;2.40;0.80;;;14.70;84.50;;;;;;5012025;28;20216;-76
2021/10/21 01:45:42;;;;;;;1.10;0.80;;;14.60;83.90;;;;;;5012608;28;20171;-76
2021/10/21 01:48:09;;;;;;;3.13;0.90;;;14.60;81.50;;;;;;5012156;28;20609;-74
2021/10/21 01:50:35;;;;;;;2.00;0.90;;;14.60;82.10;;;;;;5013364;28;20578;-75
2021/10/21 01:53:01;;;;;;;4.73;1.00;;;14.60;80.40;;;;;;5010277;28;20456;-75
2021/10/21 01:55:26;;;;;;;6.30;0.90;;;14.60;77.90;;;;;;5012095;28;20485;-75
2021/10/21 01:57:53;;;;;;;5.63;0.70;;;14.70;77.90;;;;;;5010359;28;20727;-76
2021/10/21 02:00:21;;;;;;;1.20;0.80;;;14.70;77.60;;;;;;5011709;28;20170;-75
2021/10/21 02:02:47;;;;;;;3.80;0.90;;;14.60;77.40;;;;;;5011447;28;20429;-75
2021/10/21 02:05:14;;;;;;;3.97;0.90;;;14.50;76.80;;;;;;5012007;28;20417;-75
2021/10/21 02:07:41;;;;;;;3.00;0.73;;;14.40;77.10;;;;;;5011590;28;20410;-75
2021/10/21 02:10:25;;;;;;;2.73;0.80;;;14.30;76.10;;;;;;5010337;28;20429;-76
2021/10/21 02:12:52;;;;;;;1.60;0.90;;;14.20;76.20;;;;;;5011606;28;20444;-75
2021/10/21 02:15:18;;;;;;;6.03;1.00;;;14.20;75.90;;;;;;5012055;28;20414;-75
2021/10/21 02:17:45;;;;;;;3.23;0.73;;;14.10;76.40;;;;;;5011167;28;20975;-75
2021/10/21 02:20:12;;;;;;;2.27;0.60;;;14.10;74.80;;;;;;5011792;28;20195;-76
2021/10/21 02:22:39;;;;;;;6.17;1.37;;;14.00;73.30;;;;;;5010511;28;20476;-76
2021/10/21 02:25:09;;;;;;;2.20;1.00;;;14.00;73.80;;;;;;5011180;28;20402;-76
2021/10/21 02:27:35;;;;;;;4.13;0.93;;;14.00;73.40;;;;;;5009881;28;20924;-76
2021/10/21 02:30:01;;;;;;;2.10;0.80;;;14.00;72.10;;;;;;5011429;28;20410;-74
2021/10/21 02:32:27;;;;;;;2.63;0.90;;;14.00;71.00;;;;;;5009482;28;20745;-74
2021/10/21 02:34:53;;;;;;;5.13;1.20;;;14.00;70.00;;;;;;5011265;28;20179;-76
2021/10/21 02:37:18;;;;;;;1.40;0.80;;;14.00;69.50;;;;;;5009808;28;20199;-75
2021/10/21 02:39:44;;;;;;;1.70;0.90;;;14.00;70.00;;;;;;5009732;28;20505;-74
2021/10/21 02:42:10;;;;;;;4.63;0.93;;;14.00;69.40;;;;;;5010885;28;20186;-74
2021/10/21 02:44:36;;;;;;;3.00;0.80;;;14.00;69.90;;;;;;5010935;28;20198;-75
2021/10/21 02:47:02;;;;;;;2.60;0.70;;;14.00;69.80;;;;;;5010316;28;20179;-75
2021/10/21 02:49:27;;;;;;;7.63;1.37;;;14.00;70.10;;;;;;5009756;28;20500;-75
2021/10/21 02:51:53;;;;;;;8.30;0.80;;;14.00;70.80;;;;;;5011050;28;20648;-73
2021/10/21 02:54:19;;;;;;;5.80;1.13;;;13.90;70.40;;;;;;5011684;28;20187;-75
2021/10/21 02:56:44;;;;;;;6.20;1.00;;;13.80;70.90;;;;;;5011713;28;20254;-75
2021/10/21 02:59:10;;;;;;;2.60;1.50;;;13.80;70.80;;;;;;5013992;28;20175;-75
2021/10/21 03:01:36;;;;;;;4.80;1.20;;;13.80;70.80;;;;;;5013756;28;20240;-75
2021/10/21 03:04:01;;;;;;;6.80;1.33;;;13.70;71.30;;;;;;5011058;22;20224;-74
2021/10/21 03:06:27;;;;;;;6.70;1.07;;;13.80;71.70;;;;;;4972992;28;20169;-73
2021/10/21 03:08:53;;;;;;;4.60;1.17;;;13.80;71.50;;;;;;4970854;28;20173;-74
2021/10/21 03:11:18;;;;;;;4.20;1.00;;;13.80;71.60;;;;;;4971952;28;20180;-73
2021/10/21 03:13:44;;;;;;;4.20;1.13;;;13.80;71.50;;;;;;4971097;28;20527;-74
2021/10/21 03:16:10;;;;;;;10.33;1.13;;;13.70;71.80;;;;;;4972356;28;20196;-74
2021/10/21 03:18:35;;;;;;;15.33;2.17;;;13.70;72.20;;;;;;4972587;28;20176;-74
2021/10/21 03:21:01;;;;;;;6.27;1.43;;;13.70;73.20;;;;;;4972318;28;20176;-74
2021/10/21 03:23:27;;;;;;;4.97;1.17;;;13.80;72.10;;;;;;4970490;28;20239;-73
2021/10/21 03:25:53;;;;;;;7.00;0.93;;;13.80;72.00;;;;;;4971325;28;20214;-73
2021/10/21 03:28:20;;;;;;;5.37;1.03;;;13.80;71.50;;;;;;4972402;28;20176;-73
2021/10/21 03:30:45;;;;;;;3.40;0.70;;;13.80;71.70;;;;;;4972079;28;20766;-73
2021/10/21 03:33:12;;;;;;;10.13;1.10;;;13.80;71.90;;;;;;4972130;28;20407;-73
2021/10/21 03:35:41;;;;;;;5.40;1.00;;;13.90;71.80;;;;;;4974534;28;20171;-73
2021/10/21 03:38:07;;;;;;;4.20;1.63;;;13.90;71.50;;;;;;4976429;28;20427;-73
2021/10/21 03:40:33;;;;;;;6.23;0.80;;;13.90;71.20;;;;;;4958735;28;20404;-74
2021/10/21 03:42:58;;;;;;;4.30;1.23;;;13.90;70.80;;;;;;4974725;28;20473;-74
2021/10/21 03:45:24;;;;;;;4.90;0.90;;;14.00;71.30;;;;;;4974850;28;20255;-73
2021/10/21 03:47:50;;;;;;;3.90;0.90;;;13.90;71.30;;;;;;4976468;28;20198;-73
2021/10/21 03:50:17;;;;;;;4.30;0.83;;;13.90;71.90;;;;;;4976576;28;20173;-74
2021/10/21 03:52:42;;;;;;;2.37;0.67;;;13.90;71.50;;;;;;4984607;28;20411;-73
2021/10/21 03:55:08;;;;;;;7.30;0.93;;;13.90;71.60;;;;;;4983909;28;20459;-73
2021/10/21 03:57:34;;;;;;;5.50;1.00;;;13.80;72.10;;;;;;4983194;28;20204;-73
2021/10/21 03:59:59;;;;;;;3.27;0.93;;;13.70;72.90;;;;;;4978183;28;20259;-73
2021/10/21 04:02:25;;;;;;;2.47;1.10;;;13.70;73.30;;;;;;4975076;28;20615;-73
2021/10/21 04:04:51;;;;;;;3.83;1.03;;;13.70;74.20;;;;;;4975148;28;20225;-74
2021/10/21 04:07:16;;;;;;;5.70;1.10;;;13.70;74.40;;;;;;4973784;28;20179;-74
2021/10/21 04:09:42;;;;;;;3.63;0.80;;;13.70;74.60;;;;;;4974991;28;20251;-74
2021/10/21 04:12:08;;;;;;;2.60;0.80;;;13.70;75.00;;;;;;4974800;28;20192;-73
2021/10/21 04:14:34;;;;;;;1.73;0.90;;;13.60;75.40;;;;;;4975013;28;20212;-73
2021/10/21 04:17:00;;;;;;;2.60;0.70;;;13.60;75.80;;;;;;4973590;28;20980;-74
2021/10/21 04:19:25;;;;;;;4.83;1.07;;;13.60;76.10;;;;;;4973751;28;20255;-73
2021/10/21 04:21:51;;;;;;;3.10;0.70;;;13.60;76.20;;;;;;4976459;28;20196;-72
2021/10/21 04:24:17;;;;;;;5.60;1.07;;;13.60;76.20;;;;;;4974772;28;20191;-75
2021/10/21 04:26:43;;;;;;;3.77;0.80;;;13.60;76.20;;;;;;4974935;28;20211;-73
2021/10/21 04:29:08;;;;;;;2.80;0.80;;;13.60;76.30;;;;;;4975237;28;20404;-74
2021/10/21 04:31:34;;;;;;;7.97;3.50;;;13.60;76.20;;;;;;4975224;28;20187;-74
2021/10/21 04:34:00;;;;;;;1.57;0.60;;;13.60;76.10;;;;;;4975934;28;20246;-73
2021/10/21 04:36:25;;;;;;;1.27;0.60;;;13.60;76.20;;;;;;4973412;28;20279;-73
2021/10/21 04:38:51;;;;;;;2.93;0.90;;;13.60;76.10;;;;;;4981392;28;20630;-73
2021/10/21 04:41:17;;;;;;;4.00;0.83;;;13.60;76.20;;;;;;4974186;28;20175;-74
2021/10/21 04:43:42;;;;;;;3.57;1.40;;;13.60;76.20;;;;;;4973255;28;20198;-72
2021/10/21 04:46:08;;;;;;;3.63;2.00;;;13.60;76.40;;;;;;4955953;28;20176;-74
2021/10/21 04:48:34;;;;;;;1.07;0.60;;;13.60;76.60;;;;;;4974227;28;20183;-73
2021/10/21 04:51:00;;;;;;;4.27;0.80;;;13.50;76.50;;;;;;4974525;28;20164;-72
2021/10/21 04:53:25;;;;;;;3.17;0.70;;;13.50;76.80;;;;;;4974948;28;20279;-74
2021/10/21 04:55:51;;;;;;;1.40;0.67;;;13.50;77.00;;;;;;4974642;28;20538;-73
2021/10/21 04:58:17;;;;;;;1.47;0.50;;;13.50;76.80;;;;;;4972840;28;20243;-74
2021/10/21 05:00:42;;;;;;;2.30;0.80;;;13.50;76.80;;;;;;4972268;28;20172;-74
2021/10/21 05:03:10;;;;;;;1.30;0.70;;;13.50;77.10;;;;;;4971728;28;20638;-74
2021/10/21 05:05:36;;;;;;;3.20;0.73;;;13.50;77.10;;;;;;4987158;28;20181;-75
2021/10/21 05:08:02;;;;;;;2.90;0.67;;;13.50;77.20;;;;;;4990480;28;20438;-78
2021/10/21 05:10:28;;;;;;;4.93;1.20;;;13.50;77.20;;;;;;4989217;28;20169;-77
2021/10/21 05:12:53;;;;;;;1.10;0.50;;;13.50;76.80;;;;;;4988282;28;20432;-76
2021/10/21 05:15:19;;;;;;;3.47;0.60;;;13.50;75.70;;;;;;4998350;28;20188;-74
2021/10/21 05:17:45;;;;;;;2.40;1.00;;;13.50;75.90;;;;;;4997519;28;20215;-75
2021/10/21 05:20:11;;;;;;;2.40;0.50;;;13.50;76.10;;;;;;4996986;28;20173;-75
2021/10/21 05:22:37;;;;;;;1.40;0.80;;;13.50;75.60;;;;;;4990647;28;20165;-77
2021/10/21 05:25:04;;;;;;;1.43;0.70;;;13.50;75.80;;;;;;5008538;28;20435;-77
2021/10/21 05:27:30;;;;;;;1.10;0.60;;;13.50;76.00;;;;;;5007424;28;20411;-78
2021/10/21 05:29:56;;;;;;;7.30;0.70;;;13.50;75.90;;;;;;4994267;28;20761;-76
2021/10/21 05:32:21;;;;;;;1.97;0.50;;;13.40;75.70;;;;;;4995436;28;20404;-76
2021/10/21 05:34:47;;;;;;;0.80;0.50;;;13.40;75.80;;;;;;4994707;28;20196;-78
2021/10/21 05:37:14;;;;;;;1.77;0.60;;;13.40;75.70;;;;;;4988328;28;20204;-77
2021/10/21 05:39:40;;;;;;;2.20;0.70;;;13.30;75.70;;;;;;4992336;28;20173;-77
2021/10/21 05:42:06;;;;;;;3.47;0.60;;;13.30;75.40;;;;;;5008549;28;20470;-77
2021/10/21 05:44:31;;;;;;;1.07;0.47;;;13.30;75.70;;;;;;4997339;28;20482;-76
2021/10/21 05:46:58;;;;;;;3.60;0.77;;;13.30;75.90;;;;;;4996071;28;20416;-77
2021/10/21 05:49:23;;;;;;;4.13;0.93;;;13.30;76.00;;;;;;4978902;28;20177;-76
2021/10/21 05:51:49;;;;;;;1.43;0.60;;;13.30;78.00;;;;;;4992763;28;20427;-79
2021/10/21 05:54:15;;;;;;;1.37;0.60;;;13.00;84.40;;;;;;4990952;28;20263;-79
2021/10/21 05:56:41;;;;;;;2.30;0.50;;;12.70;87.60;;;;;;4992014;28;20213;-77
2021/10/21 05:59:06;;;;;;;2.83;1.67;;;12.40;89.20;;;;;;4991156;28;20180;-76
2021/10/21 06:01:32;;;;;;;1.03;0.70;;;12.30;89.30;;;;;;4993801;28;20184;-75
2021/10/21 06:03:58;;;;;;;1.47;0.70;;;12.20;90.00;;;;;;4990671;28;20211;-79
2021/10/21 06:06:24;;;;;;;2.40;0.73;;;12.20;90.10;;;;;;4995744;28;20191;-76
2021/10/21 06:08:49;;;;;;;6.03;0.73;;;12.10;90.40;;;;;;4994853;28;20439;-75
2021/10/21 06:11:15;;;;;;;6.40;1.00;;;12.00;90.60;;;;;;4992925;28;20188;-76
2021/10/21 06:13:41;;;;;;;6.60;1.20;;;12.00;90.50;;;;;;4995870;28;20191;-77
2021/10/21 06:16:08;;;;;;;4.07;1.63;;;11.90;90.00;;;;;;4994577;28;20482;-78
2021/10/21 06:18:35;;;;;;;4.63;0.90;;;11.90;89.50;;;;;;4992875;28;20480;-77
2021/10/21 06:21:05;;;;;;;6.03;0.90;;;11.80;90.30;;;;;;4993253;28;20450;-77
2021/10/21 06:23:31;;;;;;;4.27;1.03;;;11.70;89.80;;;;;;4992964;28;20483;-79
2021/10/21 06:25:57;;;;;;;2.03;0.60;;;11.60;90.10;;;;;;4993109;28;20415;-77
2021/10/21 06:28:23;;;;;;;1.60;0.63;;;11.50;90.70;;;;;;4991902;28;20392;-77
2021/10/21 06:30:48;;;;;;;2.13;0.77;;;11.50;91.20;;;;;;4989669;28;20302;-77
2021/10/21 06:33:16;;;;;;;2.97;1.10;;;11.40;91.30;;;;;;4987703;28;20176;-79
2021/10/21 06:35:42;;;;;;;3.20;0.77;;;11.40;91.50;;;;;;4990155;28;20176;-78
2021/10/21 06:38:09;;;;;;;2.60;1.37;;;11.40;92.00;;;;;;4989722;28;20463;-79
2021/10/21 06:40:34;;;;;;;4.17;1.33;;;11.30;92.00;;;;;;4988914;28;20411;-79
2021/10/21 06:43:00;;;;;;;2.20;1.20;;;11.30;92.30;;;;;;4987444;28;20494;-77
2021/10/21 06:45:26;;;;;;;4.20;1.57;;;11.30;92.30;;;;;;4987123;28;20707;-80
2021/10/21 06:47:52;;;;;;;4.23;0.90;;;11.20;92.30;;;;;;4984758;28;20182;-79
2021/10/21 06:50:18;;;;;;;7.50;0.90;;;11.20;92.60;;;;;;4985927;28;20416;-77
2021/10/21 06:52:44;;;;;;;8.90;1.37;;;11.30;92.80;;;;;;4986389;28;20419;-78
2021/10/21 06:55:13;;;;;;;8.47;1.30;;;11.30;93.10;;;;;;5003930;28;20203;-78
2021/10/21 06:57:50;;;;;;;7.53;1.53;;;11.30;93.30;;;;;;4985713;28;20471;-78
2021/10/21 07:00:17;;;;;;;2.97;1.33;;;11.30;93.30;;;;;;4989000;28;20399;-77
2021/10/21 07:02:43;;;;;;;4.20;1.47;;;11.30;93.00;;;;;;4985528;28;20442;-78
2021/10/21 07:05:13;;;;;;;11.23;1.57;;;11.20;92.90;;;;;;4984293;28;20456;-78
2021/10/21 07:07:39;;;;;;;7.83;1.60;;;11.20;93.00;;;;;;4987420;28;20418;-79
2021/10/21 07:10:06;;;;;;;5.30;1.70;;;11.30;92.60;;;;;;4987255;28;20435;-79
2021/10/21 07:12:36;;;;;;;2.53;2.13;;;11.30;92.60;;;;;;4989819;28;20430;-78
2021/10/21 07:15:03;;;;;;;4.10;1.50;;;11.30;92.30;;;;;;4989992;28;20432;-77
2021/10/21 07:17:30;;;;;;;9.07;2.87;;;11.30;92.50;;;;;;4989268;28;20849;-78
2021/10/21 07:19:55;;;;;;;4.40;1.30;;;11.30;92.60;;;;;;4990078;28;20419;-77
2021/10/21 07:22:21;;;;;;;6.87;1.80;;;11.20;92.70;;;;;;4991510;28;20404;-77
2021/10/21 07:24:47;;;;;;;1.97;0.80;;;11.30;92.80;;;;;;4994786;28;20197;-78
2021/10/21 07:27:13;;;;;;;4.90;1.83;;;11.20;92.90;;;;;;4994046;28;20428;-77
2021/10/21 07:29:39;;;;;;;5.73;1.30;;;11.20;92.50;;;;;;4971889;28;20434;-78
2021/10/21 07:32:05;;;;;;;9.53;2.10;;;11.20;92.10;;;;;;4993263;28;20176;-77
2021/10/21 07:34:30;;;;;;;9.50;1.57;;;11.20;91.70;;;;;;4990212;28;20180;-77
2021/10/21 07:36:58;;;;;;;7.07;1.30;;;11.20;90.80;;;;;;4995740;28;20470;-76
2021/10/21 07:39:24;;;;;;;5.03;1.57;;;11.30;90.70;;;;;;4992858;28;20176;-79
2021/10/21 07:41:51;;;;;;;4.63;1.50;;;11.20;90.30;;;;;;4990394;28;20419;-76
2021/10/21 07:44:18;;;;;;;4.00;0.93;;;11.30;90.40;;;;;;4991246;28;20440;-78
2021/10/21 07:46:46;;;;;;;4.13;1.50;;;11.20;90.20;;;;;;4990587;28;20451;-76
2021/10/21 07:49:13;;;;;;;5.20;1.63;;;11.10;90.20;;;;;;4992207;28;20452;-76
2021/10/21 07:51:39;;;;;;;4.93;1.50;;;11.00;90.60;;;;;;4989003;28;20440;-77
2021/10/21 07:54:06;;;;;;;7.40;2.70;;;11.00;91.10;;;;;;4986821;28;20427;-78
2021/10/21 07:56:32;;;;;;;6.57;1.40;;;11.00;91.40;;;;;;4984517;28;20448;-78
2021/10/21 07:58:58;;;;;;;10.73;3.17;;;11.10;91.50;;;;;;4990533;28;20516;-77
2021/10/21 08:01:24;;;;;;;16.93;8.30;;;11.10;91.40;;;;;;4988413;28;20175;-76
2021/10/21 08:03:51;;;;;;;6.73;1.87;;;11.10;91.40;;;;;;4988299;28;20246;-78
2021/10/21 08:06:17;;;;;;;9.43;2.00;;;11.20;91.30;;;;;;4982377;28;20416;-76
2021/10/21 08:08:43;;;;;;;7.13;1.77;;;11.20;91.50;;;;;;4987541;28;20450;-80
2021/10/21 08:11:09;;;;;;;5.23;1.67;;;11.30;91.00;;;;;;4991051;28;20164;-79
2021/10/21 08:13:34;;;;;;;3.20;1.40;;;11.30;90.90;;;;;;4986146;28;20443;-78
2021/10/21 08:16:01;;;;;;;7.00;1.70;;;11.40;90.50;;;;;;4983922;28;20172;-77
2021/10/21 08:18:28;;;;;;;6.33;2.00;;;11.40;89.40;;;;;;4985813;28;20169;-79
2021/10/21 08:20:53;;;;;;;10.30;2.37;;;11.50;89.60;;;;;;4986156;28;20432;-77
2021/10/21 08:23:19;;;;;;;6.87;2.33;;;11.60;88.80;;;;;;4988102;28;20431;-79
2021/10/21 08:25:45;;;;;;;6.77;2.10;;;11.70;88.40;;;;;;4992421;28;20165;-77
2021/10/21 08:28:11;;;;;;;7.80;1.90;;;12.00;87.10;;;;;;4987846;28;20176;-77
2021/10/21 08:30:40;;;;;;;8.67;2.03;;;12.20;86.70;;;;;;4993189;28;20918;-75
2021/10/21 08:33:06;;;;;;;7.73;2.30;;;12.40;85.30;;;;;;4994200;28;20415;-77
2021/10/21 08:35:34;;;;;;;11.20;2.97;;;12.70;85.40;;;;;;4994837;28;20436;-76
2021/10/21 08:38:01;;;;;;;5.50;1.90;;;13.80;80.00;;;;;;4988909;28;20455;-78
2021/10/21 08:40:29;;;;;;;11.00;1.80;;;14.30;77.10;;;;;;4971409;28;20814;-78
2021/10/21 08:42:55;;;;;;;8.83;1.87;;;14.50;75.80;;;;;;4985658;28;20420;-76
2021/10/21 08:45:21;;;;;;;5.37;1.70;;;15.00;72.80;;;;;;4989285;28;20459;-77
2021/10/21 08:47:50;;;;;;;4.97;1.80;;;15.10;69.70;;;;;;4991485;28;20186;-78
2021/10/21 08:50:17;;;;;;;9.57;1.83;;;15.20;68.60;;;;;;4973046;28;20493;-78
2021/10/21 08:52:44;;;;;;;5.47;1.70;;;14.80;69.50;;;;;;4990308;28;20420;-78
2021/10/21 08:55:11;;;;;;;9.70;2.03;;;14.20;70.70;;;;;;4988995;28;20504;-76
2021/10/21 08:57:38;;;;;;;3.43;2.07;;;13.90;72.90;;;;;;4990802;28;20462;-75
2021/10/21 09:00:08;;;;;;;9.80;2.20;;;13.70;74.00;;;;;;4994767;28;20861;-78
2021/10/21 09:02:53;;;;;;;7.93;1.77;;;13.60;74.00;;;;;;4986779;28;20412;-78
2021/10/21 09:05:31;;;;;;;7.67;1.40;;;13.50;74.60;;;;;;5021004;23;20955;-77
2021/10/21 09:08:15;;;;;;;3.67;1.50;;;14.10;72.20;;;;;;4996274;28;20421;-76
2021/10/21 09:10:50;;;;;;;7.30;1.67;;;16.00;65.80;;;;;;5013642;28;20458;-77
2021/10/21 09:13:30;;;;;;;7.30;1.83;;;17.40;59.20;;;;;;5013459;28;20408;-76
2021/10/21 09:15:58;;;;;;;7.03;2.13;;;18.90;55.50;;;;;;4993872;28;20515;-76
2021/10/21 09:18:27;;;;;;;21.83;2.00;;;20.60;51.20;;;;;;4994317;28;20494;-78
2021/10/21 09:20:53;;;;;;;6.63;1.80;;;21.00;47.70;;;;;;4993566;28;20831;-77
2021/10/21 09:23:26;;;;;;;7.37;2.33;;;20.90;47.50;;;;;;4993648;28;20413;-77
2021/10/21 09:25:52;;;;;;;3.43;1.33;;;21.50;47.40;;;;;;4993806;28;20413;-77
2021/10/21 09:28:22;;;;;;;3.50;1.10;;;22.20;44.10;;;;;;4993402;28;20423;-76
2021/10/21 09:30:52;;;;;;;4.20;2.07;;;21.70;44.60;;;;;;4992845;28;20179;-76
2021/10/21 09:33:18;;;;;;;4.90;1.40;;;21.20;45.50;;;;;;4993047;28;20414;-77
2021/10/21 09:35:55;;;;;;;4.47;1.97;;;21.00;44.50;;;;;;4993288;28;20427;-76
2021/10/21 09:38:27;;;;;;;5.87;1.50;;;20.00;45.90;;;;;;4993375;28;20171;-75
2021/10/21 09:40:54;;;;;;;5.53;1.60;;;20.50;46.30;;;;;;4993925;28;20399;-77
2021/10/21 09:43:29;;;;;;;8.57;2.77;;;21.30;44.40;;;;;;4993386;28;20809;-77
2021/10/21 09:45:54;;;;;;;4.57;1.33;;;20.80;43.20;;;;;;4994804;28;20407;-76
2021/10/21 09:48:21;;;;;;;9.17;2.67;;;19.60;45.50;;;;;;4993398;28;21016;-77
2021/10/21 09:50:50;;;;;;;4.60;1.63;;;18.60;47.20;;;;;;4993208;28;20225;-77
2021/10/21 09:53:28;;;;;;;3.07;1.40;;;17.40;48.30;;;;;;4988470;28;20850;-76
2021/10/21 09:56:06;;;;;;;7.57;1.50;;;16.30;50.90;;;;;;4974254;28;20408;-77
2021/10/21 09:58:37;;;;;;;4.20;1.47;;;15.60;53.00;;;;;;4974325;28;20427;-77
2021/10/21 10:01:11;;;;;;;4.97;2.10;;;15.10;54.20;;;;;;4973827;28;20411;-76
2021/10/21 10:03:51;;;;;;;10.30;2.07;;;14.80;55.80;;;;;;4973207;28;20410;-77
2021/10/21 10:06:18;;;;;;;2.37;1.03;;;14.70;56.40;;;;;;4975204;28;20408;-76
2021/10/21 10:08:45;;;;;;;4.77;2.47;;;14.60;57.00;;;;;;4972923;28;20874;-78
2021/10/21 10:11:19;;;;;;;2.97;1.67;;;14.40;58.20;;;;;;4973834;28;20849;-77
2021/10/21 10:13:47;;;;;;;12.97;2.07;;;14.20;58.90;;;;;;4973594;28;20433;-77
2021/10/21 10:16:15;;;;;;;7.53;1.90;;;14.10;59.90;;;;;;4973247;28;20942;-76
2021/10/21 10:18:48;;;;;;;5.63;1.20;;;14.00;60.90;;;;;;4971549;28;20425;-76
2021/10/21 10:21:19;;;;;;;12.93;2.17;;;13.90;61.60;;;;;;4973502;28;20412;-79
2021/10/21 10:24:02;;;;;;;4.70;1.90;;;13.80;63.50;;;;;;4972965;28;20431;-76
2021/10/21 10:26:48;;;;;;;7.93;2.50;;;13.70;65.20;;;;;;4974017;28;20408;-77
2021/10/21 10:29:17;;;;;;;5.90;2.37;;;13.60;66.20;;;;;;4974380;28;20486;-76
2021/10/21 10:31:46;;;;;;;7.63;3.03;;;13.50;67.40;;;;;;4975527;28;20447;-77
2021/10/21 10:34:34;;;;;;;8.83;1.70;;;13.50;68.90;;;;;;4973467;28;20455;-78
2021/10/21 10:37:19;;;;;;;17.20;3.10;;;13.40;69.20;;;;;;4973346;28;20447;-76
2021/10/21 10:39:48;;;;;;;6.30;2.00;;;13.40;70.00;;;;;;4974464;28;20418;-77
2021/10/21 10:42:14;;;;;;;17.53;5.53;;;13.50;69.30;;;;;;4974169;28;20781;-76
2021/10/21 10:44:58;;;;;;;11.90;3.33;;;13.60;68.80;;;;;;4972932;28;20443;-76
2021/10/21 10:47:57;;;;;;;8.30;3.67;;;13.60;69.30;;;;;;4973228;28;20514;-77
2021/10/21 10:50:25;;;;;;;14.37;5.00;;;13.50;70.30;;;;;;4973485;28;20408;-77
2021/10/21 10:53:09;;;;;;;9.73;2.30;;;13.40;69.50;;;;;;4973246;28;20779;-77
2021/10/21 10:55:50;;;;;;;18.93;4.17;;;13.40;71.10;;;;;;4972575;28;20530;-77
2021/10/21 10:58:26;;;;;;;18.67;3.77;;;13.40;71.30;;;;;;4971280;28;20471;-77
2021/10/21 11:00:58;;;;;;;11.50;2.80;;;13.30;72.10;;;;;;4973208;28;20422;-77
2021/10/21 11:03:34;;;;;;;11.37;3.90;;;13.30;72.30;;;;;;4973237;28;20408;-77
2021/10/21 11:06:10;;;;;;;6.83;2.63;;;13.30;70.90;;;;;;4975473;28;20500;-78
2021/10/21 11:08:58;;;;;;;7.53;2.50;;;13.30;70.50;;;;;;4972429;28;20495;-76
2021/10/21 11:11:59;;;;;;;20.83;8.77;;;13.50;69.30;;;;;;4971995;28;20794;-76
2021/10/21 11:14:31;;;;;;;14.77;5.00;;;13.80;68.80;;;;;;4970931;28;20455;-76
2021/10/21 11:16:57;;;;;;;6.57;2.13;;;14.00;65.60;;;;;;4972881;28;20484;-76
2021/10/21 11:19:46;;;;;;;6.10;1.60;;;14.10;64.60;;;;;;4973026;28;20416;-76
2021/10/21 11:22:34;;;;;;;5.50;1.50;;;14.10;63.70;;;;;;4972527;28;20420;-75
2021/10/21 11:25:03;;;;;;;9.00;1.90;;;14.10;63.70;;;;;;4987160;28;20478;-77
2021/10/21 11:27:35;;;;;;;12.97;1.80;;;14.00;62.90;;;;;;4972832;28;20496;-77
2021/10/21 11:30:09;;;;;;;9.13;2.43;;;14.00;63.20;;;;;;4973514;28;20415;-77
2021/10/21 11:32:37;;;;;;;12.63;2.60;;;14.00;63.30;;;;;;4972466;28;20419;-76
2021/10/21 11:35:09;;;;;;;7.40;2.27;;;13.90;64.50;;;;;;4972627;28;20612;-76
2021/10/21 11:37:43;;;;;;;4.90;1.90;;;14.10;63.00;;;;;;4972497;28;20451;-77
2021/10/21 11:40:17;;;;;;;8.70;3.03;;;14.20;62.70;;;;;;4971543;28;20408;-78
2021/10/21 11:42:49;;;;;;;13.23;2.10;;;14.40;62.20;;;;;;4971516;28;20443;-76
2021/10/21 11:45:15;;;;;;;8.87;1.77;;;14.60;62.20;;;;;;4974186;28;20436;-77
2021/10/21 11:47:42;;;;;;;5.73;1.73;;;14.80;61.20;;;;;;4972943;28;20423;-76
2021/10/21 11:50:08;;;;;;;9.17;2.07;;;14.90;59.50;;;;;;4972469;28;20182;-76
2021/10/21 11:52:42;;;;;;;6.40;1.63;;;15.00;59.10;;;;;;4972218;28;20408;-76
2021/10/21 11:55:19;;;;;;;4.37;1.63;;;15.00;59.70;;;;;;4972841;28;20455;-75
2021/10/21 11:57:45;;;;;;;7.03;1.83;;;14.90;59.90;;;;;;4975259;28;20447;-75
2021/10/21 12:00:20;;;;;;;7.63;1.77;;;14.80;59.90;;;;;;4976550;28;20413;-76
2021/10/21 12:02:50;;;;;;;15.40;1.87;;;14.60;61.00;;;;;;4975833;28;20219;-75
2021/10/21 12:05:17;;;;;;;6.10;2.07;;;14.50;62.30;;;;;;4975239;28;20527;-76
2021/10/21 12:07:43;;;;;;;5.73;1.60;;;14.20;64.50;;;;;;4977130;28;20416;-76
2021/10/21 12:10:08;;;;;;;8.77;1.73;;;14.00;66.70;;;;;;4980508;28;20416;-77
2021/10/21 12:12:40;;;;;;;15.67;2.00;;;13.90;68.40;;;;;;4981195;28;20434;-77
2021/10/21 12:15:08;;;;;;;16.23;3.17;;;13.80;70.00;;;;;;4977681;28;20262;-77
2021/10/21 12:17:35;;;;;;;4.80;1.60;;;13.60;73.50;;;;;;4975918;28;20459;-77
2021/10/21 12:20:01;;;;;;;4.37;1.60;;;13.50;74.40;;;;;;4978984;28;20495;-76
2021/10/21 12:22:29;;;;;;;7.90;1.47;;;13.40;75.80;;;;;;4958588;28;20419;-77
2021/10/21 12:24:55;;;;;;;4.13;1.30;;;13.30;78.60;;;;;;4975582;28;20454;-76
2021/10/21 12:27:26;;;;;;;5.10;1.37;;;13.10;80.10;;;;;;4975238;28;20415;-76
2021/10/21 12:30:06;;;;;;;9.10;1.70;;;13.00;81.80;;;;;;4975449;28;20196;-76
2021/10/21 12:32:32;;;;;;;10.13;1.80;;;12.80;84.30;;;;;;4992100;28;20816;-76
2021/10/21 12:35:09;;;;;;;7.30;1.63;;;12.60;85.50;;;;;;4976817;28;20439;-79
2021/10/21 12:37:41;;;;;;;2.90;1.00;;;12.40;86.80;;;;;;4976480;28;20462;-78
2021/10/21 12:40:21;;;;;;;5.00;2.00;;;12.20;87.80;;;;;;4975752;28;20424;-75
2021/10/21 12:42:47;;;;;;;6.13;2.60;;;12.00;88.60;;;;;;4976274;28;20404;-76
2021/10/21 12:45:22;;;;;;;3.13;1.30;;;11.80;88.90;;;;;;4974183;28;21001;-76
2021/10/21 12:47:48;;;;;;;1.83;1.20;;;11.70;89.80;;;;;;4976338;28;20187;-76
2021/10/21 12:50:17;;;;;;;5.10;1.07;;;11.60;90.20;;;;;;4975401;28;20507;-76